createdAt,value
2023-01-30T00:00:58.249Z,50.23
2023-01-30T00:04:02.132Z,52.93
2023-01-30T00:07:05.778Z,53.20
2023-01-30T00:10:11.351Z,51.83
2023-01-30T00:13:16.460Z,52.00
2023-01-30T00:16:21.546Z,54.93
2023-01-30T00:19:25.224Z,54.87
2023-01-30T00:22:28.851Z,52.50
2023-01-30T00:25:33.022Z,53.63
2023-01-30T00:28:37.048Z,53.77
2023-01-30T00:31:42.083Z,53.83
2023-01-30T00:34:45.618Z,55.80
2023-01-30T00:37:49.351Z,49.13
2023-01-30T00:40:53.376Z,51.93
2023-01-30T00:44:14.310Z,51.80
2023-01-30T00:47:19.473Z,54.03
2023-01-30T00:50:23.615Z,57.40
2023-01-30T00:53:27.815Z,58.00
2023-01-30T00:56:31.510Z,51.93
2023-01-30T00:59:35.185Z,51.30
2023-01-30T01:02:40.319Z,56.17
2023-01-30T01:05:45.268Z,56.43
2023-01-30T01:08:48.854Z,57.77
2023-01-30T01:11:52.456Z,56.30
2023-01-30T01:14:56.098Z,50.73
2023-01-30T01:18:01.242Z,58.47
2023-01-30T01:21:05.138Z,60.87
2023-01-30T01:24:13.873Z,52.23
2023-01-30T01:27:17.876Z,50.47
2023-01-30T01:30:21.708Z,54.77
2023-01-30T01:33:30.307Z,56.20
2023-01-30T01:36:52.617Z,52.37
2023-01-30T01:40:15.168Z,50.60
2023-01-30T01:43:22.039Z,52.30
2023-01-30T01:46:31.252Z,58.93
2023-01-30T01:49:38.746Z,50.30
2023-01-30T01:52:44.256Z,56.17
2023-01-30T01:55:53.411Z,59.07
2023-01-30T01:59:02.459Z,54.80
2023-01-30T02:02:12.134Z,55.57
2023-01-30T02:05:20.656Z,53.77
2023-01-30T02:08:31.006Z,57.90
2023-01-30T02:11:47.853Z,55.73
2023-01-30T02:14:54.021Z,56.57
2023-01-30T02:17:57.712Z,59.17
2023-01-30T02:21:40.744Z,55.33
2023-01-30T02:25:43.896Z,55.87
2023-01-30T02:29:31.387Z,50.53
2023-01-30T02:32:46.011Z,46.47
2023-01-30T02:36:08.345Z,53.80
2023-01-30T02:39:26.517Z,56.80
2023-01-30T02:42:38.784Z,48.97
2023-01-30T02:45:55.620Z,47.53
2023-01-30T02:49:10.958Z,47.60
2023-01-30T02:52:18.340Z,47.77
2023-01-30T02:55:25.475Z,41.60
2023-01-30T02:58:36.886Z,35.83
2023-01-30T03:02:18.698Z,40.00
2023-01-30T03:05:45.116Z,43.63
2023-01-30T03:09:04.023Z,36.97
2023-01-30T03:12:18.621Z,38.03
2023-01-30T03:15:31.599Z,41.97
2023-01-30T03:18:35.247Z,38.30
2023-01-30T03:21:45.015Z,35.07
2023-01-30T03:24:49.254Z,35.63
2023-01-30T03:27:55.912Z,36.60
2023-01-30T03:30:59.837Z,38.27
2023-01-30T03:34:03.459Z,31.83
2023-01-30T03:37:08.524Z,40.03
2023-01-30T03:40:14.598Z,29.73
2023-01-30T03:43:18.219Z,34.77
2023-01-30T03:46:21.882Z,31.20
2023-01-30T03:49:25.503Z,29.20
2023-01-30T03:52:30.596Z,25.60
2023-01-30T03:55:34.164Z,25.00
2023-01-30T03:58:37.873Z,23.13
2023-01-30T04:01:41.448Z,20.33
2023-01-30T04:04:45.039Z,22.33
2023-01-30T04:07:50.623Z,20.37
2023-01-30T04:10:54.326Z,21.70
2023-01-30T04:13:58.058Z,17.63
2023-01-30T04:17:01.711Z,18.20
2023-01-30T04:20:06.567Z,20.90
2023-01-30T04:23:11.689Z,16.73
2023-01-30T04:26:15.642Z,19.13
2023-01-30T04:29:19.385Z,12.87
2023-01-30T04:32:23.070Z,10.43
2023-01-30T04:35:26.774Z,8.50
2023-01-30T04:38:33.811Z,4.60
2023-01-30T04:41:37.603Z,4.67
2023-01-30T04:44:41.228Z,5.83
2023-01-30T04:47:45.928Z,5.50
2023-01-30T04:50:51.253Z,6.17
2023-01-30T04:53:56.232Z,4.53
2023-01-30T04:56:59.836Z,7.70
2023-01-30T05:00:03.688Z,5.30
2023-01-30T05:03:07.669Z,4.80
2023-01-30T05:06:11.242Z,8.57
2023-01-30T05:09:16.710Z,1.77
2023-01-30T05:12:20.386Z,2.13
2023-01-30T05:15:24.040Z,4.40
2023-01-30T05:18:28.714Z,3.57
2023-01-30T05:21:32.515Z,3.30
2023-01-30T05:24:37.555Z,8.50
2023-01-30T05:27:41.147Z,4.47
2023-01-30T05:30:46.393Z,13.43
2023-01-30T05:33:53.195Z,11.97
2023-01-30T05:36:56.830Z,9.00
2023-01-30T05:40:01.946Z,11.87
2023-01-30T05:43:05.541Z,12.47
2023-01-30T05:46:12.579Z,14.70
2023-01-30T05:49:16.409Z,16.20
2023-01-30T05:52:19.992Z,16.83
2023-01-30T05:55:25.284Z,21.87
2023-01-30T05:58:29.681Z,12.00
2023-01-30T06:01:33.718Z,20.23
2023-01-30T06:04:37.279Z,17.27
2023-01-30T06:07:40.872Z,19.27
2023-01-30T06:10:45.860Z,17.07
2023-01-30T06:13:49.631Z,15.63
2023-01-30T06:16:53.405Z,25.33
2023-01-30T06:19:57.099Z,21.57
2023-01-30T06:23:00.867Z,16.87
2023-01-30T06:26:09.075Z,22.20
2023-01-30T06:29:13.090Z,18.67
2023-01-30T06:32:16.817Z,23.80
2023-01-30T06:35:21.065Z,25.10
2023-01-30T06:38:26.146Z,29.30
2023-01-30T06:41:31.351Z,30.07
2023-01-30T06:44:35.071Z,27.40
2023-01-30T06:47:47.238Z,27.07
2023-01-30T06:50:50.937Z,21.70
2023-01-30T06:53:54.769Z,22.83
2023-01-30T06:56:59.743Z,21.13
2023-01-30T07:00:04.140Z,21.63
2023-01-30T07:03:11.291Z,22.00
2023-01-30T07:06:14.841Z,27.50
2023-01-30T07:09:18.699Z,20.83
2023-01-30T07:12:24.728Z,18.63
2023-01-30T07:15:30.208Z,30.83
2023-01-30T07:18:33.821Z,26.67
2023-01-30T07:21:37.525Z,19.27
2023-01-30T07:24:43.004Z,20.60
2023-01-30T07:27:53.483Z,20.10
2023-01-30T07:31:00.788Z,20.27
2023-01-30T07:34:04.434Z,19.67
2023-01-30T07:37:08.080Z,20.27
2023-01-30T07:40:14.165Z,24.93
2023-01-30T07:43:19.178Z,21.53
2023-01-30T07:46:24.173Z,24.40
2023-01-30T07:49:28.179Z,23.50
2023-01-30T07:52:34.977Z,16.15
2023-01-30T07:55:39.226Z,19.80
2023-01-30T07:58:44.248Z,25.03
2023-01-30T08:01:47.979Z,23.60
2023-01-30T08:04:51.761Z,21.37
2023-01-30T08:07:57.610Z,22.23
2023-01-30T08:11:01.250Z,21.20
2023-01-30T08:14:06.218Z,24.77
2023-01-30T08:17:09.949Z,25.37
2023-01-30T08:20:16.998Z,17.00
2023-01-30T08:23:21.231Z,22.73
2023-01-30T08:26:25.076Z,27.23
2023-01-30T08:29:31.857Z,16.40
2023-01-30T08:32:35.469Z,26.67
2023-01-30T08:35:39.123Z,17.20
2023-01-30T08:38:42.769Z,16.30
2023-01-30T08:41:46.494Z,21.63
2023-01-30T08:44:51.446Z,18.60
2023-01-30T08:47:55.629Z,18.90
2023-01-30T08:50:59.313Z,19.83
2023-01-30T08:54:02.969Z,20.53
2023-01-30T08:57:06.583Z,18.63
2023-01-30T09:00:13.753Z,15.57
2023-01-30T09:03:18.897Z,17.40
2023-01-30T09:06:25.054Z,21.97
2023-01-30T09:09:30.900Z,21.27
2023-01-30T09:12:34.485Z,18.23
2023-01-30T09:15:42.737Z,26.13
2023-01-30T09:18:46.729Z,20.57
2023-01-30T09:21:51.153Z,16.07
2023-01-30T09:24:54.759Z,24.90
2023-01-30T09:27:58.393Z,20.47
2023-01-30T09:31:04.607Z,19.10
2023-01-30T09:34:09.539Z,21.90
2023-01-30T09:37:13.079Z,24.20
2023-01-30T09:40:22.177Z,17.83
2023-01-30T09:44:05.417Z,19.63
2023-01-30T09:47:13.980Z,20.83
2023-01-30T09:50:43.397Z,16.20
2023-01-30T09:54:15.928Z,19.97
2023-01-30T09:57:23.803Z,22.90
2023-01-30T10:00:36.619Z,20.97
2023-01-30T10:03:55.618Z,14.37
2023-01-30T10:07:14.646Z,16.40
2023-01-30T10:10:30.779Z,14.70
2023-01-30T10:13:59.165Z,17.47
2023-01-30T10:17:25.098Z,20.80
2023-01-30T10:20:44.293Z,21.67
2023-01-30T10:24:14.088Z,16.93
2023-01-30T10:27:19.553Z,15.37
2023-01-30T10:30:23.677Z,15.50
2023-01-30T10:33:36.527Z,19.30
2023-01-30T10:36:50.355Z,19.07
2023-01-30T10:40:04.569Z,19.00
2023-01-30T10:43:27.840Z,24.83
2023-01-30T10:47:00.428Z,24.87
2023-01-30T10:50:16.671Z,17.27
2023-01-30T10:53:30.549Z,23.50
2023-01-30T10:56:47.021Z,19.20
2023-01-30T11:00:02.795Z,19.83
2023-01-30T11:03:33.502Z,21.30
2023-01-30T11:06:37.272Z,15.20
2023-01-30T11:09:45.469Z,13.47
2023-01-30T11:12:51.353Z,14.30
2023-01-30T11:15:59.714Z,11.83
2023-01-30T11:19:19.639Z,19.47
2023-01-30T11:22:27.650Z,12.77
2023-01-30T11:25:33.244Z,13.57
2023-01-30T11:28:48.709Z,17.27
2023-01-30T11:31:54.230Z,13.60
2023-01-30T11:35:19.573Z,14.23
2023-01-30T11:38:25.752Z,14.27
2023-01-30T11:41:31.523Z,21.30
2023-01-30T11:44:38.339Z,19.23
2023-01-30T11:48:02.264Z,21.40
2023-01-30T11:51:11.434Z,17.67
2023-01-30T11:54:20.864Z,19.73
2023-01-30T11:57:25.891Z,16.50
2023-01-30T12:00:41.896Z,15.33
2023-01-30T12:03:54.769Z,18.60
2023-01-30T12:07:10.297Z,15.20
2023-01-30T12:10:30.168Z,17.37
2023-01-30T12:13:42.040Z,14.53
2023-01-30T12:16:59.459Z,17.50
2023-01-30T12:20:14.175Z,13.67
2023-01-30T12:23:35.610Z,17.53
2023-01-30T12:26:46.856Z,23.87
2023-01-30T12:30:04.959Z,13.77
2023-01-30T12:36:37.244Z,14.30
2023-01-30T12:39:59.962Z,15.67
2023-01-30T12:43:43.891Z,13.20
2023-01-30T12:47:13.391Z,14.50
2023-01-30T12:50:30.371Z,13.80
2023-01-30T12:53:51.817Z,12.07
2023-01-30T12:57:17.059Z,14.50
2023-01-30T13:00:39.045Z,12.53
2023-01-30T13:03:56.564Z,11.83
2023-01-30T13:07:13.785Z,10.70
2023-01-30T13:10:27.237Z,11.77
2023-01-30T13:13:43.190Z,12.27
2023-01-30T13:17:09.409Z,11.30
2023-01-30T13:20:35.145Z,18.87
2023-01-30T13:23:57.067Z,17.13
2023-01-30T13:27:07.925Z,16.50
2023-01-30T13:30:19.443Z,12.20
2023-01-30T13:33:27.913Z,11.17
2023-01-30T13:36:43.700Z,12.00
2023-01-30T13:39:54.008Z,17.50
2023-01-30T13:43:04.375Z,15.43
2023-01-30T13:46:17.079Z,12.73
2023-01-30T13:49:30.870Z,14.87
2023-01-30T13:52:47.203Z,16.97
2023-01-30T13:55:58.948Z,14.73
2023-01-30T13:59:15.811Z,9.30
2023-01-30T14:02:22.702Z,16.50
2023-01-30T14:06:14.480Z,15.87
2023-01-30T14:09:33.335Z,15.60
2023-01-30T14:12:42.677Z,14.67
2023-01-30T14:15:57.685Z,18.80
2023-01-30T14:19:01.357Z,16.27
2023-01-30T14:22:32.362Z,15.57
2023-01-30T14:25:50.304Z,15.47
2023-01-30T14:28:55.348Z,22.33
2023-01-30T14:31:59.344Z,19.00
2023-01-30T14:35:25.435Z,14.80
2023-01-30T14:38:30.712Z,19.07
2023-01-30T14:41:35.829Z,17.47
2023-01-30T14:45:03.681Z,10.60
2023-01-30T14:48:44.763Z,18.57
2023-01-30T14:51:50.856Z,17.80
2023-01-30T14:54:55.044Z,17.67
2023-01-30T14:58:03.815Z,23.20
2023-01-30T15:01:07.803Z,14.07
2023-01-30T15:04:17.605Z,16.53
2023-01-30T15:07:27.326Z,15.77
2023-01-30T15:11:08.444Z,14.77
2023-01-30T15:14:24.025Z,12.60
2023-01-30T15:17:41.000Z,15.43
2023-01-30T15:21:12.828Z,17.80
2023-01-30T15:24:56.113Z,17.20
2023-01-30T15:28:13.409Z,16.00
2023-01-30T15:31:22.165Z,12.57
2023-01-30T15:34:30.436Z,18.80
2023-01-30T15:37:38.082Z,16.20
2023-01-30T15:40:42.515Z,12.80
2023-01-30T15:44:08.398Z,15.77
2023-01-30T15:47:38.720Z,17.47
2023-01-30T15:50:51.617Z,17.40
2023-01-30T15:53:58.144Z,23.80
2023-01-30T15:57:02.602Z,15.03
2023-01-30T16:00:11.840Z,27.20
2023-01-30T16:03:23.205Z,18.30
2023-01-30T16:06:33.757Z,12.20
2023-01-30T16:09:37.558Z,13.30
2023-01-30T16:12:41.690Z,17.87
2023-01-30T16:15:52.741Z,10.00
2023-01-30T16:19:05.155Z,14.87
2023-01-30T16:22:18.483Z,14.67
2023-01-30T16:25:26.990Z,11.80
2023-01-30T16:28:33.474Z,18.33
2023-01-30T16:31:41.487Z,12.53
2023-01-30T16:34:46.713Z,16.80
2023-01-30T16:37:50.734Z,22.23
2023-01-30T16:40:54.325Z,15.83
2023-01-30T16:44:17.732Z,15.20
2023-01-30T16:47:28.164Z,15.07
2023-01-30T16:50:33.266Z,19.87
2023-01-30T16:53:37.607Z,18.07
2023-01-30T16:56:49.900Z,16.10
2023-01-30T16:59:53.525Z,19.77
2023-01-30T17:03:00.888Z,8.90
2023-01-30T17:06:12.765Z,15.33
2023-01-30T17:09:45.137Z,13.30
2023-01-30T17:12:53.224Z,15.77
2023-01-30T17:16:27.459Z,7.67
2023-01-30T17:19:31.699Z,17.43
2023-01-30T17:22:40.748Z,11.83
2023-01-30T17:25:48.313Z,13.97
2023-01-30T17:28:51.975Z,14.97
2023-01-30T17:31:56.032Z,16.17
2023-01-30T17:34:59.762Z,11.40
2023-01-30T17:38:06.204Z,18.03
2023-01-30T17:41:19.537Z,19.00
2023-01-30T17:44:23.189Z,17.30
2023-01-30T17:47:26.795Z,14.43
2023-01-30T17:50:30.551Z,14.97
2023-01-30T17:53:35.753Z,14.90
2023-01-30T17:56:43.423Z,15.57
2023-01-30T17:59:47.483Z,14.77
2023-01-30T18:02:51.199Z,17.60
2023-01-30T18:05:54.912Z,14.77
2023-01-30T18:08:59.899Z,13.60
2023-01-30T18:12:03.508Z,20.07
2023-01-30T18:15:09.231Z,13.40
2023-01-30T18:18:17.261Z,19.73
2023-01-30T18:21:22.999Z,12.40
2023-01-30T18:24:28.451Z,19.13
2023-01-30T18:27:32.058Z,16.50
2023-01-30T18:30:35.678Z,15.53
2023-01-30T18:33:40.823Z,13.63
2023-01-30T18:36:44.471Z,21.50
2023-01-30T18:39:49.599Z,16.77
2023-01-30T18:42:53.187Z,22.53
2023-01-30T18:46:05.227Z,15.93
2023-01-30T18:49:09.415Z,23.13
2023-01-30T18:52:13.131Z,19.97
2023-01-30T18:55:18.721Z,9.63
2023-01-30T18:58:22.321Z,13.63
2023-01-30T19:01:28.314Z,17.20
2023-01-30T19:04:32.042Z,17.17
2023-01-30T19:07:38.021Z,16.37
2023-01-30T19:10:43.150Z,22.03
2023-01-30T19:13:45.850Z,19.03
2023-01-30T19:16:51.319Z,15.13
2023-01-30T19:19:56.822Z,12.63
2023-01-30T19:23:00.600Z,9.70
2023-01-30T19:26:05.991Z,11.90
2023-01-30T19:29:10.437Z,9.90
2023-01-30T19:32:14.150Z,10.33
2023-01-30T19:35:18.553Z,8.90
2023-01-30T19:38:22.582Z,9.90
2023-01-30T19:41:30.566Z,10.97
2023-01-30T19:44:34.206Z,10.10
2023-01-30T19:47:37.860Z,7.40
2023-01-30T19:50:41.468Z,13.07
2023-01-30T19:53:47.701Z,10.00
2023-01-30T19:56:52.685Z,9.40
2023-01-30T19:59:56.215Z,11.83
2023-01-30T20:02:59.980Z,8.60
2023-01-30T20:06:13.231Z,11.17
2023-01-30T20:09:17.770Z,10.17
2023-01-30T20:12:24.100Z,13.60
2023-01-30T20:15:28.263Z,13.20
2023-01-30T20:18:33.840Z,10.10
2023-01-30T20:21:37.578Z,15.47
2023-01-30T20:24:41.204Z,9.50
2023-01-30T20:27:46.220Z,17.97
2023-01-30T20:30:49.816Z,16.00
2023-01-30T20:33:55.824Z,11.87
2023-01-30T20:36:59.879Z,10.53
2023-01-30T20:40:03.862Z,15.80
2023-01-30T20:43:09.135Z,16.87
2023-01-30T20:46:18.819Z,11.90
2023-01-30T20:49:24.468Z,10.77
2023-01-30T20:52:29.561Z,14.90
2023-01-30T20:55:34.869Z,16.37
2023-01-30T20:58:40.023Z,10.30
2023-01-30T21:01:44.879Z,16.03
2023-01-30T21:04:48.711Z,20.03
2023-01-30T21:07:52.396Z,19.33
2023-01-30T21:10:56.796Z,14.00
2023-01-30T21:14:02.194Z,17.80
2023-01-30T21:17:05.863Z,24.40
2023-01-30T21:20:11.551Z,18.57
2023-01-30T21:23:15.217Z,17.43
2023-01-30T21:26:21.229Z,19.50
2023-01-30T21:29:29.328Z,19.20
2023-01-30T21:32:33.007Z,9.47
2023-01-30T21:35:36.766Z,25.73
2023-01-30T21:38:58.208Z,21.17
2023-01-30T21:42:21.259Z,15.23
2023-01-30T21:45:26.445Z,12.60
2023-01-30T21:48:30.080Z,9.50
2023-01-30T21:51:33.886Z,17.60
2023-01-30T21:54:37.806Z,14.93
2023-01-30T21:57:41.523Z,19.77
2023-01-30T22:00:47.140Z,14.67
2023-01-30T22:03:51.065Z,21.37
2023-01-30T22:06:54.828Z,18.33
2023-01-30T22:10:00.266Z,15.10
2023-01-30T22:13:04.387Z,16.07
2023-01-30T22:16:12.368Z,12.47
2023-01-30T22:19:16.216Z,9.60
2023-01-30T22:22:20.713Z,16.87
2023-01-30T22:25:24.516Z,14.93
2023-01-30T22:28:28.692Z,16.30
2023-01-30T22:31:36.379Z,16.47
2023-01-30T22:34:40.557Z,15.47
2023-01-30T22:37:44.283Z,12.10
2023-01-30T22:40:48.001Z,15.73
2023-01-30T22:43:55.538Z,10.73
2023-01-30T22:47:00.702Z,17.97
2023-01-30T22:50:05.694Z,19.33
2023-01-30T22:53:09.350Z,18.80
2023-01-30T22:56:17.005Z,13.87
2023-01-30T22:59:21.756Z,10.10
2023-01-30T23:02:26.928Z,16.90
2023-01-30T23:05:30.598Z,15.13
2023-01-30T23:08:36.747Z,14.27
2023-01-30T23:11:44.128Z,15.63
2023-01-30T23:14:47.823Z,18.07
2023-01-30T23:18:21.708Z,12.97
2023-01-30T23:21:27.932Z,11.23
2023-01-30T23:24:31.644Z,16.93
2023-01-30T23:27:35.529Z,23.67
2023-01-30T23:30:39.535Z,12.53
2023-01-30T23:33:45.203Z,8.40
2023-01-30T23:36:48.805Z,14.00
2023-01-30T23:39:52.429Z,14.07
2023-01-30T23:42:56.020Z,17.87
2023-01-30T23:45:59.766Z,16.10
2023-01-30T23:49:08.288Z,15.80
2023-01-30T23:52:13.456Z,12.73
2023-01-30T23:55:17.735Z,21.67
2023-01-30T23:58:22.068Z,16.27
